sensor_id;sensor_type;location;lat;lon;timestamp;P1;durP1;ratioP1;P2;durP2;ratioP2
58581;SDS011;44361;51.476;5.700;2023-06-22T00:01:57;7.43;;;4.85;;
58581;SDS011;44361;51.476;5.700;2023-06-22T00:04:24;10.48;;;5.35;;
58581;SDS011;44361;51.476;5.700;2023-06-22T00:06:50;8.65;;;5.25;;
58581;SDS011;44361;51.476;5.700;2023-06-22T00:09:15;8.73;;;5.60;;
58581;SDS011;44361;51.476;5.700;2023-06-22T00:11:41;8.82;;;5.38;;
58581;SDS011;44361;51.476;5.700;2023-06-22T00:14:06;10.60;;;5.75;;
58581;SDS011;44361;51.476;5.700;2023-06-22T00:16:32;9.32;;;5.25;;
58581;SDS011;44361;51.476;5.700;2023-06-22T00:18:58;8.48;;;5.50;;
58581;SDS011;44361;51.476;5.700;2023-06-22T00:21:25;9.70;;;5.82;;
58581;SDS011;44361;51.476;5.700;2023-06-22T00:23:51;8.65;;;5.80;;
58581;SDS011;44361;51.476;5.700;2023-06-22T00:26:17;8.20;;;5.97;;
58581;SDS011;44361;51.476;5.700;2023-06-22T00:28:42;8.48;;;5.97;;
58581;SDS011;44361;51.476;5.700;2023-06-22T00:31:08;10.75;;;5.88;;
58581;SDS011;44361;51.476;5.700;2023-06-22T00:33:33;9.13;;;5.90;;
58581;SDS011;44361;51.476;5.700;2023-06-22T00:35:59;10.73;;;6.53;;
58581;SDS011;44361;51.476;5.700;2023-06-22T00:38:24;8.15;;;5.53;;
58581;SDS011;44361;51.476;5.700;2023-06-22T00:40:50;7.93;;;6.47;;
58581;SDS011;44361;51.476;5.700;2023-06-22T00:43:15;8.15;;;6.50;;
58581;SDS011;44361;51.476;5.700;2023-06-22T00:45:41;9.50;;;6.82;;
58581;SDS011;44361;51.476;5.700;2023-06-22T00:48:06;11.27;;;7.32;;
58581;SDS011;44361;51.476;5.700;2023-06-22T00:50:33;9.60;;;6.53;;
58581;SDS011;44361;51.476;5.700;2023-06-22T00:53:01;9.18;;;6.43;;
58581;SDS011;44361;51.476;5.700;2023-06-22T00:55:45;10.80;;;6.80;;
58581;SDS011;44361;51.476;5.700;2023-06-22T00:58:16;11.98;;;7.28;;
58581;SDS011;44361;51.476;5.700;2023-06-22T01:00:46;11.65;;;7.10;;
58581;SDS011;44361;51.476;5.700;2023-06-22T01:03:12;10.90;;;7.13;;
58581;SDS011;44361;51.476;5.700;2023-06-22T01:05:38;11.27;;;7.70;;
58581;SDS011;44361;51.476;5.700;2023-06-22T01:08:28;12.35;;;8.23;;
58581;SDS011;44361;51.476;5.700;2023-06-22T01:11:45;11.82;;;7.78;;
58581;SDS011;44361;51.476;5.700;2023-06-22T01:14:00;13.35;;;8.40;;
58581;SDS011;44361;51.476;5.700;2023-06-22T01:16:55;14.80;;;9.07;;
58581;SDS011;44361;51.476;5.700;2023-06-22T01:22:08;14.50;;;9.10;;
58581;SDS011;44361;51.476;5.700;2023-06-22T01:29:58;11.48;;;7.88;;
58581;SDS011;44361;51.476;5.700;2023-06-22T01:32:30;16.70;;;8.90;;
58581;SDS011;44361;51.476;5.700;2023-06-22T01:35:01;13.38;;;9.32;;
58581;SDS011;44361;51.476;5.700;2023-06-22T01:37:29;12.40;;;9.18;;
58581;SDS011;44361;51.476;5.700;2023-06-22T01:39:57;10.57;;;7.82;;
58581;SDS011;44361;51.476;5.700;2023-06-22T01:42:24;12.90;;;8.55;;
58581;SDS011;44361;51.476;5.700;2023-06-22T01:44:50;13.23;;;8.43;;
58581;SDS011;44361;51.476;5.700;2023-06-22T01:47:17;13.55;;;9.30;;
58581;SDS011;44361;51.476;5.700;2023-06-22T01:49:44;13.18;;;9.25;;
58581;SDS011;44361;51.476;5.700;2023-06-22T01:52:10;12.27;;;9.18;;
58581;SDS011;44361;51.476;5.700;2023-06-22T01:54:37;15.25;;;9.77;;
58581;SDS011;44361;51.476;5.700;2023-06-22T01:57:04;15.73;;;10.10;;
58581;SDS011;44361;51.476;5.700;2023-06-22T01:59:34;14.77;;;9.40;;
58581;SDS011;44361;51.476;5.700;2023-06-22T02:04:43;15.27;;;9.07;;
58581;SDS011;44361;51.476;5.700;2023-06-22T02:07:17;15.63;;;9.35;;
58581;SDS011;44361;51.476;5.700;2023-06-22T02:09:45;16.73;;;10.43;;
58581;SDS011;44361;51.476;5.700;2023-06-22T02:12:13;18.10;;;10.07;;
58581;SDS011;44361;51.476;5.700;2023-06-22T02:14:43;14.27;;;9.95;;
58581;SDS011;44361;51.476;5.700;2023-06-22T02:17:11;16.55;;;10.23;;
58581;SDS011;44361;51.476;5.700;2023-06-22T02:19:37;17.02;;;9.82;;
58581;SDS011;44361;51.476;5.700;2023-06-22T02:22:04;14.77;;;10.52;;
58581;SDS011;44361;51.476;5.700;2023-06-22T02:24:29;14.23;;;9.00;;
58581;SDS011;44361;51.476;5.700;2023-06-22T02:27:00;16.27;;;9.88;;
58581;SDS011;44361;51.476;5.700;2023-06-22T02:29:27;14.63;;;10.07;;
58581;SDS011;44361;51.476;5.700;2023-06-22T02:31:53;18.02;;;10.27;;
58581;SDS011;44361;51.476;5.700;2023-06-22T02:34:20;18.83;;;10.52;;
58581;SDS011;44361;51.476;5.700;2023-06-22T02:36:47;15.45;;;10.32;;
58581;SDS011;44361;51.476;5.700;2023-06-22T02:39:18;16.90;;;10.15;;
58581;SDS011;44361;51.476;5.700;2023-06-22T02:41:52;14.68;;;10.05;;
58581;SDS011;44361;51.476;5.700;2023-06-22T02:44:19;16.95;;;10.82;;
58581;SDS011;44361;51.476;5.700;2023-06-22T02:46:45;18.92;;;10.95;;
58581;SDS011;44361;51.476;5.700;2023-06-22T02:49:12;14.68;;;10.07;;
58581;SDS011;44361;51.476;5.700;2023-06-22T02:51:42;15.02;;;10.32;;
58581;SDS011;44361;51.476;5.700;2023-06-22T02:54:10;17.08;;;10.50;;
58581;SDS011;44361;51.476;5.700;2023-06-22T02:56:36;16.75;;;10.43;;
58581;SDS011;44361;51.476;5.700;2023-06-22T02:59:02;19.73;;;11.05;;
58581;SDS011;44361;51.476;5.700;2023-06-22T03:01:28;15.32;;;9.93;;
58581;SDS011;44361;51.476;5.700;2023-06-22T03:03:55;19.00;;;11.30;;
58581;SDS011;44361;51.476;5.700;2023-06-22T03:06:21;14.75;;;9.80;;
58581;SDS011;44361;51.476;5.700;2023-06-22T03:08:48;15.82;;;11.15;;
58581;SDS011;44361;51.476;5.700;2023-06-22T03:11:14;17.70;;;10.82;;
58581;SDS011;44361;51.476;5.700;2023-06-22T03:13:40;16.25;;;11.00;;
58581;SDS011;44361;51.476;5.700;2023-06-22T03:16:06;16.40;;;11.10;;
58581;SDS011;44361;51.476;5.700;2023-06-22T03:18:31;18.40;;;11.95;;
58581;SDS011;44361;51.476;5.700;2023-06-22T03:20:57;14.75;;;10.50;;
58581;SDS011;44361;51.476;5.700;2023-06-22T03:23:23;15.32;;;9.98;;
58581;SDS011;44361;51.476;5.700;2023-06-22T03:25:48;17.90;;;10.60;;
58581;SDS011;44361;51.476;5.700;2023-06-22T03:28:14;15.27;;;10.68;;
58581;SDS011;44361;51.476;5.700;2023-06-22T03:30:39;18.27;;;11.07;;
58581;SDS011;44361;51.476;5.700;2023-06-22T03:33:05;15.10;;;10.27;;
58581;SDS011;44361;51.476;5.700;2023-06-22T03:35:30;19.60;;;10.50;;
58581;SDS011;44361;51.476;5.700;2023-06-22T03:37:56;16.20;;;10.02;;
58581;SDS011;44361;51.476;5.700;2023-06-22T03:40:21;17.38;;;10.85;;
58581;SDS011;44361;51.476;5.700;2023-06-22T03:42:47;17.25;;;10.65;;
58581;SDS011;44361;51.476;5.700;2023-06-22T03:45:13;18.33;;;10.98;;
58581;SDS011;44361;51.476;5.700;2023-06-22T03:47:38;21.40;;;11.48;;
58581;SDS011;44361;51.476;5.700;2023-06-22T03:50:04;15.48;;;10.75;;
58581;SDS011;44361;51.476;5.700;2023-06-22T03:52:30;17.52;;;10.18;;
58581;SDS011;44361;51.476;5.700;2023-06-22T03:54:57;17.55;;;11.25;;
58581;SDS011;44361;51.476;5.700;2023-06-22T03:57:22;14.75;;;10.85;;
58581;SDS011;44361;51.476;5.700;2023-06-22T03:59:48;17.05;;;11.20;;
58581;SDS011;44361;51.476;5.700;2023-06-22T04:02:13;16.63;;;11.55;;
58581;SDS011;44361;51.476;5.700;2023-06-22T04:04:39;20.42;;;11.68;;
58581;SDS011;44361;51.476;5.700;2023-06-22T04:07:05;15.88;;;10.40;;
58581;SDS011;44361;51.476;5.700;2023-06-22T04:09:30;18.15;;;10.85;;
58581;SDS011;44361;51.476;5.700;2023-06-22T04:11:56;14.55;;;10.60;;
58581;SDS011;44361;51.476;5.700;2023-06-22T04:14:22;17.45;;;10.55;;
58581;SDS011;44361;51.476;5.700;2023-06-22T04:16:47;15.85;;;10.15;;
58581;SDS011;44361;51.476;5.700;2023-06-22T04:19:14;16.48;;;12.02;;
58581;SDS011;44361;51.476;5.700;2023-06-22T04:21:42;15.40;;;10.00;;
58581;SDS011;44361;51.476;5.700;2023-06-22T04:24:09;16.95;;;10.55;;
58581;SDS011;44361;51.476;5.700;2023-06-22T04:26:36;15.10;;;9.85;;
58581;SDS011;44361;51.476;5.700;2023-06-22T04:29:05;14.65;;;10.13;;
58581;SDS011;44361;51.476;5.700;2023-06-22T04:31:31;16.63;;;10.73;;
58581;SDS011;44361;51.476;5.700;2023-06-22T04:34:01;18.40;;;11.70;;
58581;SDS011;44361;51.476;5.700;2023-06-22T04:36:34;17.33;;;10.85;;
58581;SDS011;44361;51.476;5.700;2023-06-22T04:39:04;15.20;;;11.07;;
58581;SDS011;44361;51.476;5.700;2023-06-22T04:41:31;19.27;;;11.60;;
58581;SDS011;44361;51.476;5.700;2023-06-22T04:44:06;17.33;;;11.23;;
58581;SDS011;44361;51.476;5.700;2023-06-22T04:46:39;17.60;;;11.85;;
58581;SDS011;44361;51.476;5.700;2023-06-22T04:49:08;17.60;;;11.85;;
58581;SDS011;44361;51.476;5.700;2023-06-22T04:51:40;20.58;;;10.73;;
58581;SDS011;44361;51.476;5.700;2023-06-22T04:54:06;18.02;;;12.27;;
58581;SDS011;44361;51.476;5.700;2023-06-22T04:56:33;20.17;;;12.00;;
58581;SDS011;44361;51.476;5.700;2023-06-22T04:58:58;17.42;;;12.55;;
58581;SDS011;44361;51.476;5.700;2023-06-22T05:01:24;16.02;;;12.02;;
58581;SDS011;44361;51.476;5.700;2023-06-22T05:03:50;17.77;;;11.75;;
58581;SDS011;44361;51.476;5.700;2023-06-22T05:06:20;20.83;;;12.13;;
58581;SDS011;44361;51.476;5.700;2023-06-22T05:08:55;17.73;;;11.88;;
58581;SDS011;44361;51.476;5.700;2023-06-22T05:11:27;18.90;;;12.48;;
58581;SDS011;44361;51.476;5.700;2023-06-22T05:13:53;16.63;;;12.18;;
58581;SDS011;44361;51.476;5.700;2023-06-22T05:16:19;22.42;;;11.82;;
58581;SDS011;44361;51.476;5.700;2023-06-22T05:18:52;21.13;;;12.20;;
58581;SDS011;44361;51.476;5.700;2023-06-22T05:21:21;16.33;;;11.55;;
58581;SDS011;44361;51.476;5.700;2023-06-22T05:23:48;23.23;;;13.75;;
58581;SDS011;44361;51.476;5.700;2023-06-22T05:26:14;17.45;;;12.82;;
58581;SDS011;44361;51.476;5.700;2023-06-22T05:28:39;19.50;;;13.05;;
58581;SDS011;44361;51.476;5.700;2023-06-22T05:31:05;18.35;;;11.77;;
58581;SDS011;44361;51.476;5.700;2023-06-22T05:33:30;18.15;;;12.35;;
58581;SDS011;44361;51.476;5.700;2023-06-22T05:35:56;20.83;;;13.05;;
58581;SDS011;44361;51.476;5.700;2023-06-22T05:38:21;18.17;;;12.20;;
58581;SDS011;44361;51.476;5.700;2023-06-22T05:40:47;21.45;;;14.07;;
58581;SDS011;44361;51.476;5.700;2023-06-22T05:43:12;21.80;;;13.93;;
58581;SDS011;44361;51.476;5.700;2023-06-22T05:45:38;19.45;;;14.20;;
58581;SDS011;44361;51.476;5.700;2023-06-22T05:48:04;21.25;;;14.20;;
58581;SDS011;44361;51.476;5.700;2023-06-22T05:50:29;19.55;;;13.73;;
58581;SDS011;44361;51.476;5.700;2023-06-22T05:52:55;23.58;;;14.70;;
58581;SDS011;44361;51.476;5.700;2023-06-22T05:55:20;21.30;;;14.90;;
58581;SDS011;44361;51.476;5.700;2023-06-22T05:57:46;19.27;;;14.70;;
58581;SDS011;44361;51.476;5.700;2023-06-22T06:00:12;22.23;;;15.07;;
58581;SDS011;44361;51.476;5.700;2023-06-22T06:02:38;22.50;;;15.40;;
58581;SDS011;44361;51.476;5.700;2023-06-22T06:05:10;19.70;;;13.45;;
58581;SDS011;44361;51.476;5.700;2023-06-22T06:07:38;19.10;;;14.10;;
58581;SDS011;44361;51.476;5.700;2023-06-22T06:10:04;20.65;;;14.50;;
58581;SDS011;44361;51.476;5.700;2023-06-22T06:12:31;22.08;;;15.10;;
58581;SDS011;44361;51.476;5.700;2023-06-22T06:14:57;23.13;;;14.73;;
58581;SDS011;44361;51.476;5.700;2023-06-22T06:17:23;20.88;;;14.93;;
58581;SDS011;44361;51.476;5.700;2023-06-22T06:19:48;26.85;;;15.45;;
58581;SDS011;44361;51.476;5.700;2023-06-22T06:22:14;17.00;;;12.93;;
58581;SDS011;44361;51.476;5.700;2023-06-22T06:24:40;18.90;;;13.50;;
58581;SDS011;44361;51.476;5.700;2023-06-22T06:27:05;21.92;;;13.55;;
58581;SDS011;44361;51.476;5.700;2023-06-22T06:29:31;19.08;;;14.05;;
58581;SDS011;44361;51.476;5.700;2023-06-22T06:31:57;20.00;;;14.25;;
58581;SDS011;44361;51.476;5.700;2023-06-22T06:34:23;24.65;;;14.32;;
58581;SDS011;44361;51.476;5.700;2023-06-22T06:36:49;17.52;;;13.27;;
58581;SDS011;44361;51.476;5.700;2023-06-22T06:39:15;22.50;;;14.30;;
58581;SDS011;44361;51.476;5.700;2023-06-22T06:41:41;22.98;;;14.48;;
58581;SDS011;44361;51.476;5.700;2023-06-22T06:44:06;22.38;;;14.70;;
58581;SDS011;44361;51.476;5.700;2023-06-22T06:46:32;19.02;;;13.80;;
58581;SDS011;44361;51.476;5.700;2023-06-22T06:48:57;21.05;;;14.10;;
58581;SDS011;44361;51.476;5.700;2023-06-22T06:51:23;20.83;;;13.95;;
58581;SDS011;44361;51.476;5.700;2023-06-22T06:53:49;23.58;;;15.40;;
58581;SDS011;44361;51.476;5.700;2023-06-22T06:56:14;20.75;;;13.93;;
58581;SDS011;44361;51.476;5.700;2023-06-22T06:58:41;21.83;;;14.85;;
58581;SDS011;44361;51.476;5.700;2023-06-22T07:01:10;24.50;;;14.40;;
58581;SDS011;44361;51.476;5.700;2023-06-22T07:03:36;32.40;;;14.75;;
58581;SDS011;44361;51.476;5.700;2023-06-22T07:06:02;21.80;;;13.75;;
58581;SDS011;44361;51.476;5.700;2023-06-22T07:08:27;25.63;;;15.30;;
58581;SDS011;44361;51.476;5.700;2023-06-22T07:10:53;22.77;;;15.00;;
58581;SDS011;44361;51.476;5.700;2023-06-22T07:13:19;27.70;;;15.15;;
58581;SDS011;44361;51.476;5.700;2023-06-22T07:15:45;22.60;;;14.57;;
58581;SDS011;44361;51.476;5.700;2023-06-22T07:18:10;23.33;;;14.43;;
58581;SDS011;44361;51.476;5.700;2023-06-22T07:20:36;24.02;;;14.80;;
58581;SDS011;44361;51.476;5.700;2023-06-22T07:23:01;22.13;;;14.57;;
58581;SDS011;44361;51.476;5.700;2023-06-22T07:25:28;21.58;;;14.25;;
58581;SDS011;44361;51.476;5.700;2023-06-22T07:27:57;20.60;;;14.18;;
58581;SDS011;44361;51.476;5.700;2023-06-22T07:30:26;21.02;;;13.63;;
58581;SDS011;44361;51.476;5.700;2023-06-22T07:32:52;22.52;;;14.73;;
58581;SDS011;44361;51.476;5.700;2023-06-22T07:35:17;18.60;;;14.43;;
58581;SDS011;44361;51.476;5.700;2023-06-22T07:37:43;21.02;;;14.50;;
58581;SDS011;44361;51.476;5.700;2023-06-22T07:40:08;21.38;;;14.07;;
58581;SDS011;44361;51.476;5.700;2023-06-22T07:42:34;18.90;;;14.00;;
58581;SDS011;44361;51.476;5.700;2023-06-22T07:45:00;23.90;;;14.15;;
58581;SDS011;44361;51.476;5.700;2023-06-22T07:47:27;19.08;;;13.70;;
58581;SDS011;44361;51.476;5.700;2023-06-22T07:49:54;19.52;;;13.48;;
58581;SDS011;44361;51.476;5.700;2023-06-22T07:52:22;21.55;;;13.75;;
58581;SDS011;44361;51.476;5.700;2023-06-22T07:54:47;18.42;;;12.75;;
58581;SDS011;44361;51.476;5.700;2023-06-22T07:57:13;18.85;;;13.25;;
58581;SDS011;44361;51.476;5.700;2023-06-22T07:59:38;17.20;;;13.02;;
58581;SDS011;44361;51.476;5.700;2023-06-22T08:02:04;18.83;;;12.98;;
58581;SDS011;44361;51.476;5.700;2023-06-22T08:04:30;19.33;;;13.40;;
58581;SDS011;44361;51.476;5.700;2023-06-22T08:06:59;18.05;;;13.30;;
58581;SDS011;44361;51.476;5.700;2023-06-22T08:09:27;21.10;;;13.45;;
58581;SDS011;44361;51.476;5.700;2023-06-22T08:11:53;18.13;;;13.27;;
58581;SDS011;44361;51.476;5.700;2023-06-22T08:14:20;19.65;;;13.57;;
58581;SDS011;44361;51.476;5.700;2023-06-22T08:16:46;20.38;;;13.38;;
58581;SDS011;44361;51.476;5.700;2023-06-22T08:19:11;18.40;;;12.75;;
58581;SDS011;44361;51.476;5.700;2023-06-22T08:21:37;18.83;;;13.05;;
58581;SDS011;44361;51.476;5.700;2023-06-22T08:24:03;22.65;;;13.13;;
58581;SDS011;44361;51.476;5.700;2023-06-22T08:26:29;18.80;;;14.18;;
58581;SDS011;44361;51.476;5.700;2023-06-22T08:28:54;19.15;;;13.88;;
58581;SDS011;44361;51.476;5.700;2023-06-22T08:31:20;19.90;;;14.27;;
58581;SDS011;44361;51.476;5.700;2023-06-22T08:33:45;21.27;;;14.48;;
58581;SDS011;44361;51.476;5.700;2023-06-22T08:36:11;21.25;;;14.88;;
58581;SDS011;44361;51.476;5.700;2023-06-22T08:38:38;19.95;;;14.73;;
58581;SDS011;44361;51.476;5.700;2023-06-22T08:41:04;20.77;;;15.02;;
58581;SDS011;44361;51.476;5.700;2023-06-22T08:43:29;18.90;;;14.43;;
58581;SDS011;44361;51.476;5.700;2023-06-22T08:45:55;20.23;;;14.93;;
58581;SDS011;44361;51.476;5.700;2023-06-22T08:48:20;24.70;;;14.48;;
58581;SDS011;44361;51.476;5.700;2023-06-22T08:50:46;20.98;;;14.75;;
58581;SDS011;44361;51.476;5.700;2023-06-22T08:53:11;20.77;;;14.55;;
58581;SDS011;44361;51.476;5.700;2023-06-22T08:55:37;18.52;;;14.00;;
58581;SDS011;44361;51.476;5.700;2023-06-22T08:58:03;19.67;;;15.05;;
58581;SDS011;44361;51.476;5.700;2023-06-22T09:00:29;22.23;;;14.77;;
58581;SDS011;44361;51.476;5.700;2023-06-22T09:02:57;20.67;;;15.02;;
58581;SDS011;44361;51.476;5.700;2023-06-22T09:05:23;20.48;;;14.60;;
58581;SDS011;44361;51.476;5.700;2023-06-22T09:07:50;20.23;;;14.68;;
58581;SDS011;44361;51.476;5.700;2023-06-22T09:10:16;20.05;;;14.68;;
58581;SDS011;44361;51.476;5.700;2023-06-22T09:12:42;20.58;;;15.00;;
58581;SDS011;44361;51.476;5.700;2023-06-22T09:15:08;21.45;;;15.48;;
58581;SDS011;44361;51.476;5.700;2023-06-22T09:17:34;22.05;;;15.02;;
58581;SDS011;44361;51.476;5.700;2023-06-22T09:20:00;22.70;;;15.25;;
58581;SDS011;44361;51.476;5.700;2023-06-22T09:22:27;22.83;;;15.00;;
58581;SDS011;44361;51.476;5.700;2023-06-22T09:24:55;19.77;;;13.98;;
58581;SDS011;44361;51.476;5.700;2023-06-22T09:27:21;16.77;;;13.43;;
58581;SDS011;44361;51.476;5.700;2023-06-22T09:29:47;18.13;;;14.15;;
58581;SDS011;44361;51.476;5.700;2023-06-22T09:32:13;19.92;;;14.60;;
58581;SDS011;44361;51.476;5.700;2023-06-22T09:34:38;19.30;;;14.55;;
58581;SDS011;44361;51.476;5.700;2023-06-22T09:37:04;19.58;;;14.40;;
58581;SDS011;44361;51.476;5.700;2023-06-22T09:39:30;17.90;;;14.35;;
58581;SDS011;44361;51.476;5.700;2023-06-22T09:41:57;21.30;;;15.32;;
58581;SDS011;44361;51.476;5.700;2023-06-22T09:44:24;22.05;;;14.32;;
58581;SDS011;44361;51.476;5.700;2023-06-22T09:46:49;19.20;;;13.85;;
58581;SDS011;44361;51.476;5.700;2023-06-22T09:49:15;20.48;;;14.38;;
58581;SDS011;44361;51.476;5.700;2023-06-22T09:51:40;18.52;;;13.02;;
58581;SDS011;44361;51.476;5.700;2023-06-22T09:54:06;21.13;;;14.02;;
58581;SDS011;44361;51.476;5.700;2023-06-22T09:56:31;20.85;;;14.23;;
58581;SDS011;44361;51.476;5.700;2023-06-22T09:58:57;16.52;;;13.20;;
58581;SDS011;44361;51.476;5.700;2023-06-22T10:01:23;18.58;;;13.77;;
58581;SDS011;44361;51.476;5.700;2023-06-22T10:03:49;16.50;;;12.75;;
58581;SDS011;44361;51.476;5.700;2023-06-22T10:06:15;17.83;;;13.10;;
58581;SDS011;44361;51.476;5.700;2023-06-22T10:08:40;18.17;;;13.43;;
58581;SDS011;44361;51.476;5.700;2023-06-22T10:11:06;28.58;;;14.27;;
58581;SDS011;44361;51.476;5.700;2023-06-22T10:13:31;34.15;;;15.05;;
58581;SDS011;44361;51.476;5.700;2023-06-22T10:15:57;18.85;;;13.57;;
58581;SDS011;44361;51.476;5.700;2023-06-22T10:18:23;18.67;;;13.80;;
58581;SDS011;44361;51.476;5.700;2023-06-22T10:20:48;17.13;;;13.40;;
58581;SDS011;44361;51.476;5.700;2023-06-22T10:23:21;19.92;;;12.75;;
58581;SDS011;44361;51.476;5.700;2023-06-22T10:25:47;19.80;;;12.85;;
58581;SDS011;44361;51.476;5.700;2023-06-22T10:28:13;16.58;;;11.27;;
58581;SDS011;44361;51.476;5.700;2023-06-22T10:30:39;18.50;;;12.48;;
58581;SDS011;44361;51.476;5.700;2023-06-22T10:33:09;18.73;;;11.43;;
58581;SDS011;44361;51.476;5.700;2023-06-22T10:35:36;15.77;;;11.98;;
58581;SDS011;44361;51.476;5.700;2023-06-22T10:38:05;13.40;;;10.75;;
58581;SDS011;44361;51.476;5.700;2023-06-22T10:40:30;16.63;;;10.95;;
58581;SDS011;44361;51.476;5.700;2023-06-22T10:42:56;17.00;;;12.40;;
58581;SDS011;44361;51.476;5.700;2023-06-22T10:45:22;18.95;;;13.43;;
58581;SDS011;44361;51.476;5.700;2023-06-22T10:47:47;19.50;;;14.45;;
58581;SDS011;44361;51.476;5.700;2023-06-22T10:50:13;23.10;;;15.30;;
58581;SDS011;44361;51.476;5.700;2023-06-22T10:52:39;22.30;;;16.92;;
58581;SDS011;44361;51.476;5.700;2023-06-22T10:55:06;25.48;;;19.00;;
58581;SDS011;44361;51.476;5.700;2023-06-22T10:57:33;27.38;;;19.40;;
58581;SDS011;44361;51.476;5.700;2023-06-22T10:59:58;30.60;;;19.65;;
58581;SDS011;44361;51.476;5.700;2023-06-22T11:02:24;31.30;;;21.63;;
58581;SDS011;44361;51.476;5.700;2023-06-22T11:04:49;28.92;;;20.88;;
58581;SDS011;44361;51.476;5.700;2023-06-22T11:07:15;35.15;;;22.77;;
58581;SDS011;44361;51.476;5.700;2023-06-22T11:09:42;34.92;;;23.52;;
58581;SDS011;44361;51.476;5.700;2023-06-22T11:12:08;38.75;;;24.98;;
58581;SDS011;44361;51.476;5.700;2023-06-22T11:14:34;40.78;;;25.35;;
58581;SDS011;44361;51.476;5.700;2023-06-22T11:16:59;42.92;;;27.77;;
58581;SDS011;44361;51.476;5.700;2023-06-22T11:19:25;40.00;;;27.30;;
58581;SDS011;44361;51.476;5.700;2023-06-22T11:21:51;47.55;;;29.33;;
58581;SDS011;44361;51.476;5.700;2023-06-22T11:24:16;46.83;;;30.50;;
58581;SDS011;44361;51.476;5.700;2023-06-22T11:26:42;51.78;;;31.77;;
58581;SDS011;44361;51.476;5.700;2023-06-22T11:29:08;49.42;;;32.25;;
58581;SDS011;44361;51.476;5.700;2023-06-22T11:31:34;49.15;;;31.80;;
58581;SDS011;44361;51.476;5.700;2023-06-22T11:34:00;48.40;;;31.45;;
58581;SDS011;44361;51.476;5.700;2023-06-22T11:36:26;55.15;;;33.35;;
58581;SDS011;44361;51.476;5.700;2023-06-22T11:38:52;51.83;;;32.53;;
58581;SDS011;44361;51.476;5.700;2023-06-22T11:41:18;53.25;;;33.58;;
58581;SDS011;44361;51.476;5.700;2023-06-22T11:43:44;58.50;;;35.75;;
58581;SDS011;44361;51.476;5.700;2023-06-22T11:46:10;56.25;;;36.35;;
58581;SDS011;44361;51.476;5.700;2023-06-22T11:48:36;62.80;;;36.08;;
58581;SDS011;44361;51.476;5.700;2023-06-22T11:51:02;59.72;;;36.47;;
58581;SDS011;44361;51.476;5.700;2023-06-22T11:53:28;63.88;;;36.70;;
58581;SDS011;44361;51.476;5.700;2023-06-22T11:55:54;58.60;;;37.13;;
58581;SDS011;44361;51.476;5.700;2023-06-22T11:58:20;61.88;;;38.55;;
58581;SDS011;44361;51.476;5.700;2023-06-22T12:00:45;59.80;;;36.70;;
58581;SDS011;44361;51.476;5.700;2023-06-22T12:03:11;51.58;;;35.40;;
58581;SDS011;44361;51.476;5.700;2023-06-22T12:05:37;56.67;;;35.08;;
58581;SDS011;44361;51.476;5.700;2023-06-22T12:08:03;58.55;;;36.38;;
58581;SDS011;44361;51.476;5.700;2023-06-22T12:10:29;58.17;;;35.72;;
58581;SDS011;44361;51.476;5.700;2023-06-22T12:12:54;54.78;;;35.25;;
58581;SDS011;44361;51.476;5.700;2023-06-22T12:15:20;61.47;;;36.38;;
58581;SDS011;44361;51.476;5.700;2023-06-22T12:17:45;56.25;;;35.47;;
58581;SDS011;44361;51.476;5.700;2023-06-22T12:20:13;56.42;;;34.72;;
58581;SDS011;44361;51.476;5.700;2023-06-22T12:22:38;57.70;;;35.15;;
58581;SDS011;44361;51.476;5.700;2023-06-22T12:25:04;53.78;;;36.35;;
58581;SDS011;44361;51.476;5.700;2023-06-22T12:27:30;60.97;;;36.60;;
58581;SDS011;44361;51.476;5.700;2023-06-22T12:29:56;51.42;;;32.90;;
58581;SDS011;44361;51.476;5.700;2023-06-22T12:32:21;50.97;;;32.53;;
58581;SDS011;44361;51.476;5.700;2023-06-22T12:34:47;47.70;;;32.05;;
58581;SDS011;44361;51.476;5.700;2023-06-22T12:37:12;49.15;;;32.40;;
58581;SDS011;44361;51.476;5.700;2023-06-22T12:39:40;47.17;;;32.83;;
58581;SDS011;44361;51.476;5.700;2023-06-22T12:42:05;52.80;;;33.47;;
58581;SDS011;44361;51.476;5.700;2023-06-22T12:44:34;50.70;;;33.05;;
58581;SDS011;44361;51.476;5.700;2023-06-22T12:47:03;51.50;;;33.10;;
58581;SDS011;44361;51.476;5.700;2023-06-22T12:49:33;49.50;;;33.05;;
58581;SDS011;44361;51.476;5.700;2023-06-22T12:52:02;48.10;;;31.90;;
58581;SDS011;44361;51.476;5.700;2023-06-22T12:54:28;49.25;;;32.35;;
58581;SDS011;44361;51.476;5.700;2023-06-22T12:56:54;45.30;;;31.02;;
58581;SDS011;44361;51.476;5.700;2023-06-22T12:59:20;48.00;;;32.53;;
58581;SDS011;44361;51.476;5.700;2023-06-22T13:01:46;47.17;;;32.15;;
58581;SDS011;44361;51.476;5.700;2023-06-22T13:04:12;50.15;;;34.83;;
58581;SDS011;44361;51.476;5.700;2023-06-22T13:06:40;50.63;;;33.95;;
58581;SDS011;44361;51.476;5.700;2023-06-22T13:09:06;50.33;;;33.03;;
58581;SDS011;44361;51.476;5.700;2023-06-22T13:11:33;52.53;;;33.83;;
58581;SDS011;44361;51.476;5.700;2023-06-22T13:13:59;46.85;;;33.13;;
58581;SDS011;44361;51.476;5.700;2023-06-22T13:16:24;45.50;;;31.90;;
58581;SDS011;44361;51.476;5.700;2023-06-22T13:18:50;46.78;;;33.25;;
58581;SDS011;44361;51.476;5.700;2023-06-22T13:21:15;48.55;;;32.40;;
58581;SDS011;44361;51.476;5.700;2023-06-22T13:23:41;54.20;;;34.78;;
58581;SDS011;44361;51.476;5.700;2023-06-22T13:26:07;47.78;;;34.95;;
58581;SDS011;44361;51.476;5.700;2023-06-22T13:28:32;49.45;;;34.50;;
58581;SDS011;44361;51.476;5.700;2023-06-22T13:30:58;52.67;;;34.60;;
58581;SDS011;44361;51.476;5.700;2023-06-22T13:33:23;51.30;;;34.95;;
58581;SDS011;44361;51.476;5.700;2023-06-22T13:35:49;55.20;;;36.03;;
58581;SDS011;44361;51.476;5.700;2023-06-22T13:38:14;50.53;;;35.95;;
58581;SDS011;44361;51.476;5.700;2023-06-22T13:40:40;53.70;;;35.67;;
58581;SDS011;44361;51.476;5.700;2023-06-22T13:43:06;57.30;;;37.92;;
58581;SDS011;44361;51.476;5.700;2023-06-22T13:45:31;55.53;;;37.90;;
58581;SDS011;44361;51.476;5.700;2023-06-22T13:47:57;56.38;;;37.60;;
58581;SDS011;44361;51.476;5.700;2023-06-22T13:50:23;54.08;;;37.80;;
58581;SDS011;44361;51.476;5.700;2023-06-22T13:52:49;59.78;;;37.67;;
58581;SDS011;44361;51.476;5.700;2023-06-22T13:55:14;50.60;;;36.83;;
58581;SDS011;44361;51.476;5.700;2023-06-22T13:57:40;53.90;;;36.97;;
58581;SDS011;44361;51.476;5.700;2023-06-22T14:00:06;57.17;;;37.88;;
58581;SDS011;44361;51.476;5.700;2023-06-22T14:02:37;54.33;;;35.90;;
58581;SDS011;44361;51.476;5.700;2023-06-22T14:05:03;53.15;;;36.67;;
58581;SDS011;44361;51.476;5.700;2023-06-22T14:07:28;51.05;;;35.58;;
58581;SDS011;44361;51.476;5.700;2023-06-22T14:09:54;50.20;;;36.97;;
58581;SDS011;44361;51.476;5.700;2023-06-22T14:12:19;53.33;;;37.22;;
58581;SDS011;44361;51.476;5.700;2023-06-22T14:14:45;53.63;;;37.85;;
58581;SDS011;44361;51.476;5.700;2023-06-22T14:17:11;53.90;;;37.53;;
58581;SDS011;44361;51.476;5.700;2023-06-22T14:19:36;57.45;;;39.58;;
58581;SDS011;44361;51.476;5.700;2023-06-22T14:22:02;53.72;;;37.40;;
58581;SDS011;44361;51.476;5.700;2023-06-22T14:24:28;55.33;;;39.85;;
58581;SDS011;44361;51.476;5.700;2023-06-22T14:26:54;54.63;;;38.90;;
58581;SDS011;44361;51.476;5.700;2023-06-22T14:29:20;56.40;;;39.58;;
58581;SDS011;44361;51.476;5.700;2023-06-22T14:31:48;53.70;;;37.80;;